sensor_id;sensor_type;location;lat;lon;timestamp;P1;durP1;ratioP1;P2;durP2;ratioP2
22026;SDS011;11177;50.966;10.070;2023-10-31T00:00:18;7.93;;;6.22;;
22026;SDS011;11177;50.966;10.070;2023-10-31T00:02:45;8.65;;;6.72;;
22026;SDS011;11177;50.966;10.070;2023-10-31T00:05:12;9.13;;;6.60;;
22026;SDS011;11177;50.966;10.070;2023-10-31T00:07:39;8.02;;;6.10;;
22026;SDS011;11177;50.966;10.070;2023-10-31T00:10:06;8.10;;;6.15;;
22026;SDS011;11177;50.966;10.070;2023-10-31T00:12:33;8.73;;;6.20;;
22026;SDS011;11177;50.966;10.070;2023-10-31T00:15:00;9.00;;;6.22;;
22026;SDS011;11177;50.966;10.070;2023-10-31T00:17:27;7.20;;;6.45;;
22026;SDS011;11177;50.966;10.070;2023-10-31T00:19:54;8.55;;;6.30;;
22026;SDS011;11177;50.966;10.070;2023-10-31T00:22:22;7.90;;;5.50;;
22026;SDS011;11177;50.966;10.070;2023-10-31T00:24:49;7.53;;;5.15;;
22026;SDS011;11177;50.966;10.070;2023-10-31T00:27:16;6.35;;;4.72;;
22026;SDS011;11177;50.966;10.070;2023-10-31T00:29:43;5.63;;;4.25;;
22026;SDS011;11177;50.966;10.070;2023-10-31T00:32:10;4.72;;;3.80;;
22026;SDS011;11177;50.966;10.070;2023-10-31T00:34:37;4.30;;;3.63;;
22026;SDS011;11177;50.966;10.070;2023-10-31T00:37:04;4.20;;;3.60;;
22026;SDS011;11177;50.966;10.070;2023-10-31T00:39:31;6.93;;;3.85;;
22026;SDS011;11177;50.966;10.070;2023-10-31T00:42:00;5.55;;;4.07;;
22026;SDS011;11177;50.966;10.070;2023-10-31T00:44:27;7.63;;;4.03;;
22026;SDS011;11177;50.966;10.070;2023-10-31T00:46:54;5.38;;;4.03;;
22026;SDS011;11177;50.966;10.070;2023-10-31T00:49:21;5.68;;;4.18;;
22026;SDS011;11177;50.966;10.070;2023-10-31T00:51:48;4.72;;;4.13;;
22026;SDS011;11177;50.966;10.070;2023-10-31T00:54:15;6.80;;;3.95;;
22026;SDS011;11177;50.966;10.070;2023-10-31T00:56:42;5.78;;;4.60;;
22026;SDS011;11177;50.966;10.070;2023-10-31T00:59:09;10.57;;;5.47;;
22026;SDS011;11177;50.966;10.070;2023-10-31T01:01:36;9.05;;;5.13;;
22026;SDS011;11177;50.966;10.070;2023-10-31T01:04:03;6.05;;;5.20;;
22026;SDS011;11177;50.966;10.070;2023-10-31T01:06:30;6.28;;;4.75;;
22026;SDS011;11177;50.966;10.070;2023-10-31T01:08:57;6.25;;;5.15;;
22026;SDS011;11177;50.966;10.070;2023-10-31T01:11:24;7.55;;;4.93;;
22026;SDS011;11177;50.966;10.070;2023-10-31T01:13:51;7.57;;;5.30;;
22026;SDS011;11177;50.966;10.070;2023-10-31T01:16:18;7.70;;;4.65;;
22026;SDS011;11177;50.966;10.070;2023-10-31T01:18:45;5.68;;;4.20;;
22026;SDS011;11177;50.966;10.070;2023-10-31T01:21:12;4.68;;;3.95;;
22026;SDS011;11177;50.966;10.070;2023-10-31T01:23:39;3.58;;;3.25;;
22026;SDS011;11177;50.966;10.070;2023-10-31T01:26:06;3.97;;;2.88;;
22026;SDS011;11177;50.966;10.070;2023-10-31T01:28:34;3.30;;;2.45;;
22026;SDS011;11177;50.966;10.070;2023-10-31T01:31:01;3.25;;;2.22;;
22026;SDS011;11177;50.966;10.070;2023-10-31T01:33:28;2.97;;;2.30;;
22026;SDS011;11177;50.966;10.070;2023-10-31T01:35:55;3.70;;;2.65;;
22026;SDS011;11177;50.966;10.070;2023-10-31T01:38:23;3.83;;;2.45;;
22026;SDS011;11177;50.966;10.070;2023-10-31T01:40:50;4.53;;;2.33;;
22026;SDS011;11177;50.966;10.070;2023-10-31T01:43:30;3.35;;;2.38;;
22026;SDS011;11177;50.966;10.070;2023-10-31T01:46:02;3.25;;;2.03;;
22026;SDS011;11177;50.966;10.070;2023-10-31T01:48:30;2.40;;;2.00;;
22026;SDS011;11177;50.966;10.070;2023-10-31T01:50:58;3.33;;;2.10;;
22026;SDS011;11177;50.966;10.070;2023-10-31T01:53:26;2.10;;;2.00;;
22026;SDS011;11177;50.966;10.070;2023-10-31T01:55:54;1.70;;;1.60;;
22026;SDS011;11177;50.966;10.070;2023-10-31T01:58:23;1.52;;;1.42;;
22026;SDS011;11177;50.966;10.070;2023-10-31T02:00:53;1.45;;;1.35;;
22026;SDS011;11177;50.966;10.070;2023-10-31T02:03:21;1.42;;;1.33;;
22026;SDS011;11177;50.966;10.070;2023-10-31T02:05:48;1.20;;;1.10;;
22026;SDS011;11177;50.966;10.070;2023-10-31T02:08:15;1.00;;;0.90;;
22026;SDS011;11177;50.966;10.070;2023-10-31T02:10:42;1.15;;;1.10;;
22026;SDS011;11177;50.966;10.070;2023-10-31T02:13:12;1.10;;;1.00;;
22026;SDS011;11177;50.966;10.070;2023-10-31T02:15:41;0.90;;;0.90;;
22026;SDS011;11177;50.966;10.070;2023-10-31T02:18:08;2.85;;;1.00;;
22026;SDS011;11177;50.966;10.070;2023-10-31T02:20:36;2.00;;;1.00;;
22026;SDS011;11177;50.966;10.070;2023-10-31T02:23:03;2.20;;;1.05;;
22026;SDS011;11177;50.966;10.070;2023-10-31T02:25:30;1.00;;;1.00;;
22026;SDS011;11177;50.966;10.070;2023-10-31T02:27:57;1.00;;;0.82;;
22026;SDS011;11177;50.966;10.070;2023-10-31T02:30:24;1.02;;;0.93;;
22026;SDS011;11177;50.966;10.070;2023-10-31T02:36:28;2.25;;;0.90;;
22026;SDS011;11177;50.966;10.070;2023-10-31T02:38:55;1.83;;;0.88;;
22026;SDS011;11177;50.966;10.070;2023-10-31T02:41:22;1.52;;;1.00;;
22026;SDS011;11177;50.966;10.070;2023-10-31T02:43:50;1.10;;;1.00;;
22026;SDS011;11177;50.966;10.070;2023-10-31T02:46:17;2.05;;;1.00;;
22026;SDS011;11177;50.966;10.070;2023-10-31T02:48:46;1.35;;;0.93;;
22026;SDS011;11177;50.966;10.070;2023-10-31T02:51:13;1.02;;;0.82;;
22026;SDS011;11177;50.966;10.070;2023-10-31T02:53:40;1.58;;;1.08;;
22026;SDS011;11177;50.966;10.070;2023-10-31T02:56:07;2.33;;;1.05;;
22026;SDS011;11177;50.966;10.070;2023-10-31T02:58:34;1.05;;;0.90;;
22026;SDS011;11177;50.966;10.070;2023-10-31T03:01:01;1.02;;;0.90;;
22026;SDS011;11177;50.966;10.070;2023-10-31T03:03:28;2.08;;;0.88;;
22026;SDS011;11177;50.966;10.070;2023-10-31T03:05:55;0.93;;;0.88;;
22026;SDS011;11177;50.966;10.070;2023-10-31T03:08:22;1.15;;;0.60;;
22026;SDS011;11177;50.966;10.070;2023-10-31T03:10:49;0.60;;;0.60;;
22026;SDS011;11177;50.966;10.070;2023-10-31T03:13:20;0.98;;;0.70;;
22026;SDS011;11177;50.966;10.070;2023-10-31T03:15:47;2.70;;;0.50;;
22026;SDS011;11177;50.966;10.070;2023-10-31T03:18:14;0.50;;;0.50;;
22026;SDS011;11177;50.966;10.070;2023-10-31T03:20:43;1.35;;;0.50;;
22026;SDS011;11177;50.966;10.070;2023-10-31T03:23:12;0.80;;;0.55;;
22026;SDS011;11177;50.966;10.070;2023-10-31T03:25:40;1.15;;;0.68;;
22026;SDS011;11177;50.966;10.070;2023-10-31T03:28:17;1.80;;;0.70;;
22026;SDS011;11177;50.966;10.070;2023-10-31T03:30:47;0.85;;;0.80;;
22026;SDS011;11177;50.966;10.070;2023-10-31T03:33:14;0.95;;;0.73;;
22026;SDS011;11177;50.966;10.070;2023-10-31T03:35:45;1.65;;;0.93;;
22026;SDS011;11177;50.966;10.070;2023-10-31T03:38:13;1.30;;;0.60;;
22026;SDS011;11177;50.966;10.070;2023-10-31T03:40:41;3.47;;;1.65;;
22026;SDS011;11177;50.966;10.070;2023-10-31T03:43:08;0.68;;;0.60;;
22026;SDS011;11177;50.966;10.070;2023-10-31T03:45:35;1.35;;;0.60;;
22026;SDS011;11177;50.966;10.070;2023-10-31T03:48:02;0.98;;;0.57;;
22026;SDS011;11177;50.966;10.070;2023-10-31T03:50:29;0.60;;;0.60;;
22026;SDS011;11177;50.966;10.070;2023-10-31T03:52:56;0.88;;;0.60;;
22026;SDS011;11177;50.966;10.070;2023-10-31T03:55:23;1.95;;;0.50;;
22026;SDS011;11177;50.966;10.070;2023-10-31T03:57:50;0.57;;;0.57;;
22026;SDS011;11177;50.966;10.070;2023-10-31T04:00:17;1.80;;;0.60;;
22026;SDS011;11177;50.966;10.070;2023-10-31T04:02:44;0.30;;;0.30;;
22026;SDS011;11177;50.966;10.070;2023-10-31T04:05:11;0.40;;;0.40;;
22026;SDS011;11177;50.966;10.070;2023-10-31T04:07:38;1.10;;;1.00;;
22026;SDS011;11177;50.966;10.070;2023-10-31T04:10:05;1.55;;;1.33;;
22026;SDS011;11177;50.966;10.070;2023-10-31T04:12:36;3.10;;;0.85;;
22026;SDS011;11177;50.966;10.070;2023-10-31T04:15:03;0.90;;;0.80;;
22026;SDS011;11177;50.966;10.070;2023-10-31T04:17:31;0.80;;;0.80;;
22026;SDS011;11177;50.966;10.070;2023-10-31T04:19:58;0.75;;;0.75;;
22026;SDS011;11177;50.966;10.070;2023-10-31T04:22:25;1.45;;;0.70;;
22026;SDS011;11177;50.966;10.070;2023-10-31T04:24:52;1.45;;;0.70;;
22026;SDS011;11177;50.966;10.070;2023-10-31T04:27:19;0.85;;;0.60;;
22026;SDS011;11177;50.966;10.070;2023-10-31T04:29:46;2.80;;;0.50;;
22026;SDS011;11177;50.966;10.070;2023-10-31T04:32:13;1.38;;;0.52;;
22026;SDS011;11177;50.966;10.070;2023-10-31T04:34:40;0.95;;;0.63;;
22026;SDS011;11177;50.966;10.070;2023-10-31T04:37:07;0.52;;;0.40;;
22026;SDS011;11177;50.966;10.070;2023-10-31T04:39:34;0.40;;;0.40;;
22026;SDS011;11177;50.966;10.070;2023-10-31T04:42:01;0.40;;;0.40;;
22026;SDS011;11177;50.966;10.070;2023-10-31T04:44:29;2.03;;;0.40;;
22026;SDS011;11177;50.966;10.070;2023-10-31T04:46:56;1.00;;;0.50;;
22026;SDS011;11177;50.966;10.070;2023-10-31T04:49:23;1.55;;;0.32;;
22026;SDS011;11177;50.966;10.070;2023-10-31T04:51:50;0.40;;;0.40;;
22026;SDS011;11177;50.966;10.070;2023-10-31T04:54:17;0.30;;;0.30;;
22026;SDS011;11177;50.966;10.070;2023-10-31T04:56:44;1.17;;;0.40;;
22026;SDS011;11177;50.966;10.070;2023-10-31T04:59:11;3.60;;;0.40;;
22026;SDS011;11177;50.966;10.070;2023-10-31T05:01:38;0.50;;;0.40;;
22026;SDS011;11177;50.966;10.070;2023-10-31T05:04:06;0.52;;;0.40;;
22026;SDS011;11177;50.966;10.070;2023-10-31T05:06:38;1.80;;;0.40;;
22026;SDS011;11177;50.966;10.070;2023-10-31T05:09:05;0.40;;;0.40;;
22026;SDS011;11177;50.966;10.070;2023-10-31T05:11:33;0.63;;;0.38;;
22026;SDS011;11177;50.966;10.070;2023-10-31T05:14:00;0.50;;;0.50;;
22026;SDS011;11177;50.966;10.070;2023-10-31T05:16:27;1.10;;;0.90;;
22026;SDS011;11177;50.966;10.070;2023-10-31T05:18:54;1.27;;;1.00;;
22026;SDS011;11177;50.966;10.070;2023-10-31T05:21:21;1.08;;;0.70;;
22026;SDS011;11177;50.966;10.070;2023-10-31T05:23:50;0.60;;;0.60;;
22026;SDS011;11177;50.966;10.070;2023-10-31T05:26:18;0.93;;;0.55;;
22026;SDS011;11177;50.966;10.070;2023-10-31T05:28:45;0.50;;;0.50;;
22026;SDS011;11177;50.966;10.070;2023-10-31T05:31:15;1.60;;;0.50;;
22026;SDS011;11177;50.966;10.070;2023-10-31T05:33:42;2.78;;;0.90;;
22026;SDS011;11177;50.966;10.070;2023-10-31T05:36:18;1.50;;;1.10;;
22026;SDS011;11177;50.966;10.070;2023-10-31T05:38:46;2.95;;;1.25;;
22026;SDS011;11177;50.966;10.070;2023-10-31T05:41:14;3.00;;;0.70;;
22026;SDS011;11177;50.966;10.070;2023-10-31T05:43:41;0.95;;;0.47;;
22026;SDS011;11177;50.966;10.070;2023-10-31T05:46:09;1.17;;;0.50;;
22026;SDS011;11177;50.966;10.070;2023-10-31T05:48:45;3.30;;;0.50;;
22026;SDS011;11177;50.966;10.070;2023-10-31T05:51:13;1.13;;;0.60;;
22026;SDS011;11177;50.966;10.070;2023-10-31T05:53:42;1.70;;;0.90;;
22026;SDS011;11177;50.966;10.070;2023-10-31T05:56:12;3.15;;;0.90;;
22026;SDS011;11177;50.966;10.070;2023-10-31T05:58:40;2.13;;;1.20;;
22026;SDS011;11177;50.966;10.070;2023-10-31T06:01:08;3.40;;;1.10;;
22026;SDS011;11177;50.966;10.070;2023-10-31T06:03:35;2.60;;;0.75;;
22026;SDS011;11177;50.966;10.070;2023-10-31T06:06:02;2.08;;;0.80;;
22026;SDS011;11177;50.966;10.070;2023-10-31T06:08:30;5.00;;;2.05;;
22026;SDS011;11177;50.966;10.070;2023-10-31T06:10:57;3.38;;;1.20;;
22026;SDS011;11177;50.966;10.070;2023-10-31T06:13:24;1.70;;;1.10;;
22026;SDS011;11177;50.966;10.070;2023-10-31T06:15:55;3.05;;;1.38;;
22026;SDS011;11177;50.966;10.070;2023-10-31T06:18:27;3.03;;;1.00;;
22026;SDS011;11177;50.966;10.070;2023-10-31T06:20:55;3.33;;;1.27;;
22026;SDS011;11177;50.966;10.070;2023-10-31T06:23:22;7.45;;;0.90;;
22026;SDS011;11177;50.966;10.070;2023-10-31T06:25:50;3.42;;;1.10;;
22026;SDS011;11177;50.966;10.070;2023-10-31T06:28:17;2.72;;;1.38;;
22026;SDS011;11177;50.966;10.070;2023-10-31T06:30:44;2.33;;;0.73;;
22026;SDS011;11177;50.966;10.070;2023-10-31T06:33:12;3.28;;;0.98;;
22026;SDS011;11177;50.966;10.070;2023-10-31T06:35:39;5.05;;;1.38;;
22026;SDS011;11177;50.966;10.070;2023-10-31T06:38:07;4.28;;;1.20;;
22026;SDS011;11177;50.966;10.070;2023-10-31T06:40:34;6.85;;;1.40;;
22026;SDS011;11177;50.966;10.070;2023-10-31T06:43:01;2.58;;;1.40;;
22026;SDS011;11177;50.966;10.070;2023-10-31T06:45:31;1.48;;;1.38;;
22026;SDS011;11177;50.966;10.070;2023-10-31T06:47:58;1.33;;;1.00;;
22026;SDS011;11177;50.966;10.070;2023-10-31T06:50:25;2.83;;;0.90;;
22026;SDS011;11177;50.966;10.070;2023-10-31T06:52:53;1.15;;;0.75;;
22026;SDS011;11177;50.966;10.070;2023-10-31T06:55:23;3.20;;;1.00;;
22026;SDS011;11177;50.966;10.070;2023-10-31T06:57:54;2.90;;;0.80;;
22026;SDS011;11177;50.966;10.070;2023-10-31T07:00:24;5.28;;;0.93;;
22026;SDS011;11177;50.966;10.070;2023-10-31T07:02:52;1.85;;;1.00;;
22026;SDS011;11177;50.966;10.070;2023-10-31T07:05:20;3.20;;;1.20;;
22026;SDS011;11177;50.966;10.070;2023-10-31T07:07:47;3.38;;;1.00;;
22026;SDS011;11177;50.966;10.070;2023-10-31T07:10:14;3.08;;;1.40;;
22026;SDS011;11177;50.966;10.070;2023-10-31T07:12:41;2.30;;;1.20;;
22026;SDS011;11177;50.966;10.070;2023-10-31T07:15:09;1.73;;;0.85;;
22026;SDS011;11177;50.966;10.070;2023-10-31T07:17:40;2.10;;;1.08;;
22026;SDS011;11177;50.966;10.070;2023-10-31T07:20:09;5.60;;;1.30;;
22026;SDS011;11177;50.966;10.070;2023-10-31T07:22:36;1.98;;;0.90;;
22026;SDS011;11177;50.966;10.070;2023-10-31T07:25:04;2.40;;;1.13;;
22026;SDS011;11177;50.966;10.070;2023-10-31T07:27:31;4.68;;;1.13;;
22026;SDS011;11177;50.966;10.070;2023-10-31T07:29:58;0.75;;;0.60;;
22026;SDS011;11177;50.966;10.070;2023-10-31T07:32:25;3.78;;;1.13;;
22026;SDS011;11177;50.966;10.070;2023-10-31T07:34:53;1.70;;;0.95;;
22026;SDS011;11177;50.966;10.070;2023-10-31T07:37:21;3.45;;;0.90;;
22026;SDS011;11177;50.966;10.070;2023-10-31T07:39:48;1.95;;;0.80;;
22026;SDS011;11177;50.966;10.070;2023-10-31T07:42:19;1.60;;;1.08;;
22026;SDS011;11177;50.966;10.070;2023-10-31T07:44:46;2.80;;;0.80;;
22026;SDS011;11177;50.966;10.070;2023-10-31T07:47:13;2.03;;;0.68;;
22026;SDS011;11177;50.966;10.070;2023-10-31T07:49:40;0.98;;;0.77;;
22026;SDS011;11177;50.966;10.070;2023-10-31T07:52:08;0.90;;;0.77;;
22026;SDS011;11177;50.966;10.070;2023-10-31T07:54:35;0.63;;;0.50;;
22026;SDS011;11177;50.966;10.070;2023-10-31T07:57:06;0.65;;;0.60;;
22026;SDS011;11177;50.966;10.070;2023-10-31T07:59:34;0.95;;;0.75;;
22026;SDS011;11177;50.966;10.070;2023-10-31T08:02:01;0.77;;;0.63;;
22026;SDS011;11177;50.966;10.070;2023-10-31T08:04:30;1.88;;;0.70;;
22026;SDS011;11177;50.966;10.070;2023-10-31T08:06:58;1.00;;;0.50;;
22026;SDS011;11177;50.966;10.070;2023-10-31T08:09:25;0.80;;;0.68;;
22026;SDS011;11177;50.966;10.070;2023-10-31T08:11:52;3.00;;;0.75;;
22026;SDS011;11177;50.966;10.070;2023-10-31T08:14:20;1.33;;;0.70;;
22026;SDS011;11177;50.966;10.070;2023-10-31T08:16:51;1.08;;;0.60;;
22026;SDS011;11177;50.966;10.070;2023-10-31T08:19:19;1.92;;;0.60;;
22026;SDS011;11177;50.966;10.070;2023-10-31T08:21:46;1.27;;;0.70;;
22026;SDS011;11177;50.966;10.070;2023-10-31T08:24:13;0.90;;;0.80;;
22026;SDS011;11177;50.966;10.070;2023-10-31T08:26:40;2.72;;;0.82;;
22026;SDS011;11177;50.966;10.070;2023-10-31T08:29:08;0.70;;;0.50;;
22026;SDS011;11177;50.966;10.070;2023-10-31T08:31:37;1.15;;;0.55;;
22026;SDS011;11177;50.966;10.070;2023-10-31T08:34:05;0.63;;;0.50;;
22026;SDS011;11177;50.966;10.070;2023-10-31T08:36:32;1.08;;;0.80;;
22026;SDS011;11177;50.966;10.070;2023-10-31T08:38:59;1.10;;;0.70;;
22026;SDS011;11177;50.966;10.070;2023-10-31T08:41:26;1.27;;;0.70;;
22026;SDS011;11177;50.966;10.070;2023-10-31T08:43:54;1.02;;;0.52;;
22026;SDS011;11177;50.966;10.070;2023-10-31T08:46:22;0.50;;;0.50;;
22026;SDS011;11177;50.966;10.070;2023-10-31T08:48:50;1.95;;;0.50;;
22026;SDS011;11177;50.966;10.070;2023-10-31T08:51:17;0.50;;;0.30;;
22026;SDS011;11177;50.966;10.070;2023-10-31T08:53:47;0.38;;;0.30;;
22026;SDS011;11177;50.966;10.070;2023-10-31T08:56:14;0.93;;;0.50;;
22026;SDS011;11177;50.966;10.070;2023-10-31T08:58:41;0.40;;;0.40;;
22026;SDS011;11177;50.966;10.070;2023-10-31T09:01:09;0.80;;;0.40;;
22026;SDS011;11177;50.966;10.070;2023-10-31T09:03:36;0.60;;;0.40;;
22026;SDS011;11177;50.966;10.070;2023-10-31T09:06:04;0.90;;;0.50;;
22026;SDS011;11177;50.966;10.070;2023-10-31T09:08:32;0.50;;;0.40;;
22026;SDS011;11177;50.966;10.070;2023-10-31T09:11:01;1.48;;;0.40;;
22026;SDS011;11177;50.966;10.070;2023-10-31T09:13:28;1.08;;;0.50;;
22026;SDS011;11177;50.966;10.070;2023-10-31T09:15:59;0.52;;;0.50;;
22026;SDS011;11177;50.966;10.070;2023-10-31T09:18:26;0.47;;;0.40;;
22026;SDS011;11177;50.966;10.070;2023-10-31T09:20:54;1.77;;;0.57;;
22026;SDS011;11177;50.966;10.070;2023-10-31T09:23:23;0.63;;;0.43;;
22026;SDS011;11177;50.966;10.070;2023-10-31T09:25:50;0.40;;;0.30;;
22026;SDS011;11177;50.966;10.070;2023-10-31T09:28:17;0.40;;;0.40;;
22026;SDS011;11177;50.966;10.070;2023-10-31T09:30:45;0.50;;;0.47;;
22026;SDS011;11177;50.966;10.070;2023-10-31T09:33:12;0.45;;;0.40;;
22026;SDS011;11177;50.966;10.070;2023-10-31T09:35:40;0.63;;;0.40;;
22026;SDS011;11177;50.966;10.070;2023-10-31T09:38:07;1.30;;;0.30;;
22026;SDS011;11177;50.966;10.070;2023-10-31T09:40:38;0.55;;;0.45;;
22026;SDS011;11177;50.966;10.070;2023-10-31T09:43:06;0.40;;;0.40;;
22026;SDS011;11177;50.966;10.070;2023-10-31T09:45:33;0.85;;;0.50;;
22026;SDS011;11177;50.966;10.070;2023-10-31T09:48:00;0.50;;;0.50;;
22026;SDS011;11177;50.966;10.070;2023-10-31T09:50:29;1.42;;;0.70;;
22026;SDS011;11177;50.966;10.070;2023-10-31T09:52:56;0.30;;;0.30;;
22026;SDS011;11177;50.966;10.070;2023-10-31T09:55:24;0.88;;;0.50;;
22026;SDS011;11177;50.966;10.070;2023-10-31T09:57:53;1.35;;;0.43;;
22026;SDS011;11177;50.966;10.070;2023-10-31T10:00:21;1.77;;;0.60;;
22026;SDS011;11177;50.966;10.070;2023-10-31T10:02:48;0.80;;;0.40;;
22026;SDS011;11177;50.966;10.070;2023-10-31T10:05:16;1.48;;;0.57;;
22026;SDS011;11177;50.966;10.070;2023-10-31T10:07:44;2.15;;;0.55;;
22026;SDS011;11177;50.966;10.070;2023-10-31T10:10:12;0.60;;;0.60;;
22026;SDS011;11177;50.966;10.070;2023-10-31T10:12:43;0.60;;;0.60;;
22026;SDS011;11177;50.966;10.070;2023-10-31T10:15:10;0.60;;;0.50;;
22026;SDS011;11177;50.966;10.070;2023-10-31T10:17:38;1.13;;;1.00;;
22026;SDS011;11177;50.966;10.070;2023-10-31T10:20:07;0.50;;;0.50;;
22026;SDS011;11177;50.966;10.070;2023-10-31T10:22:38;1.85;;;0.40;;
22026;SDS011;11177;50.966;10.070;2023-10-31T10:25:15;0.60;;;0.52;;
22026;SDS011;11177;50.966;10.070;2023-10-31T10:27:44;1.25;;;0.60;;
22026;SDS011;11177;50.966;10.070;2023-10-31T10:30:12;0.70;;;0.60;;
22026;SDS011;11177;50.966;10.070;2023-10-31T10:32:40;0.60;;;0.60;;
22026;SDS011;11177;50.966;10.070;2023-10-31T10:35:09;3.85;;;0.80;;
22026;SDS011;11177;50.966;10.070;2023-10-31T10:37:38;2.70;;;0.60;;
22026;SDS011;11177;50.966;10.070;2023-10-31T10:40:07;0.65;;;0.60;;
22026;SDS011;11177;50.966;10.070;2023-10-31T10:42:45;1.60;;;0.60;;
22026;SDS011;11177;50.966;10.070;2023-10-31T10:45:14;0.80;;;0.80;;
22026;SDS011;11177;50.966;10.070;2023-10-31T10:47:47;0.90;;;0.90;;
22026;SDS011;11177;50.966;10.070;2023-10-31T10:50:19;2.60;;;1.15;;
22026;SDS011;11177;50.966;10.070;2023-10-31T10:52:49;1.60;;;1.50;;
22026;SDS011;11177;50.966;10.070;2023-10-31T10:55:23;1.95;;;0.77;;
22026;SDS011;11177;50.966;10.070;2023-10-31T10:57:56;4.05;;;0.90;;
22026;SDS011;11177;50.966;10.070;2023-10-31T11:00:31;1.80;;;1.10;;
22026;SDS011;11177;50.966;10.070;2023-10-31T11:02:59;4.10;;;1.10;;
22026;SDS011;11177;50.966;10.070;2023-10-31T11:05:28;3.05;;;1.10;;
22026;SDS011;11177;50.966;10.070;2023-10-31T11:07:56;1.35;;;1.08;;
22026;SDS011;11177;50.966;10.070;2023-10-31T11:10:28;1.00;;;0.70;;
22026;SDS011;11177;50.966;10.070;2023-10-31T11:12:56;1.38;;;0.82;;
22026;SDS011;11177;50.966;10.070;2023-10-31T11:15:23;0.90;;;0.80;;
22026;SDS011;11177;50.966;10.070;2023-10-31T11:17:51;1.30;;;1.20;;
22026;SDS011;11177;50.966;10.070;2023-10-31T11:20:19;0.90;;;0.70;;
22026;SDS011;11177;50.966;10.070;2023-10-31T11:22:54;0.82;;;0.82;;
22026;SDS011;11177;50.966;10.070;2023-10-31T11:25:24;2.95;;;0.90;;
22026;SDS011;11177;50.966;10.070;2023-10-31T11:30:59;1.13;;;0.90;;
22026;SDS011;11177;50.966;10.070;2023-10-31T11:33:29;2.08;;;0.90;;
22026;SDS011;11177;50.966;10.070;2023-10-31T11:36:03;1.70;;;1.10;;
22026;SDS011;11177;50.966;10.070;2023-10-31T11:38:36;2.30;;;1.00;;
22026;SDS011;11177;50.966;10.070;2023-10-31T11:41:08;7.93;;;1.20;;
22026;SDS011;11177;50.966;10.070;2023-10-31T11:46:27;1.95;;;1.70;;
22026;SDS011;11177;50.966;10.070;2023-10-31T11:48:56;1.65;;;1.08;;
22026;SDS011;11177;50.966;10.070;2023-10-31T11:51:24;0.82;;;0.82;;
22026;SDS011;11177;50.966;10.070;2023-10-31T11:53:55;2.45;;;1.00;;
22026;SDS011;11177;50.966;10.070;2023-10-31T11:56:23;1.75;;;1.10;;
22026;SDS011;11177;50.966;10.070;2023-10-31T11:59:03;1.20;;;0.85;;
22026;SDS011;11177;50.966;10.070;2023-10-31T12:01:31;1.25;;;0.90;;
22026;SDS011;11177;50.966;10.070;2023-10-31T12:04:02;2.08;;;1.10;;
22026;SDS011;11177;50.966;10.070;2023-10-31T12:06:37;2.90;;;0.90;;
22026;SDS011;11177;50.966;10.070;2023-10-31T12:09:07;1.65;;;0.90;;
22026;SDS011;11177;50.966;10.070;2023-10-31T12:11:37;1.55;;;0.80;;
22026;SDS011;11177;50.966;10.070;2023-10-31T12:14:11;1.10;;;0.90;;
22026;SDS011;11177;50.966;10.070;2023-10-31T12:16:45;1.38;;;1.13;;
22026;SDS011;11177;50.966;10.070;2023-10-31T12:19:13;2.65;;;0.90;;
22026;SDS011;11177;50.966;10.070;2023-10-31T12:21:44;5.32;;;1.00;;
22026;SDS011;11177;50.966;10.070;2023-10-31T12:24:14;1.95;;;0.80;;
22026;SDS011;11177;50.966;10.070;2023-10-31T12:26:42;1.30;;;0.90;;
22026;SDS011;11177;50.966;10.070;2023-10-31T12:29:17;0.98;;;0.88;;
22026;SDS011;11177;50.966;10.070;2023-10-31T12:34:16;0.93;;;0.93;;
22026;SDS011;11177;50.966;10.070;2023-10-31T12:36:45;1.98;;;1.08;;
22026;SDS011;11177;50.966;10.070;2023-10-31T12:39:17;1.80;;;1.20;;
22026;SDS011;11177;50.966;10.070;2023-10-31T12:41:47;2.20;;;1.20;;
22026;SDS011;11177;50.966;10.070;2023-10-31T12:44:15;2.33;;;1.40;;
22026;SDS011;11177;50.966;10.070;2023-10-31T12:46:55;3.20;;;1.50;;
22026;SDS011;11177;50.966;10.070;2023-10-31T12:49:22;1.90;;;1.30;;
22026;SDS011;11177;50.966;10.070;2023-10-31T12:51:57;2.17;;;1.70;;
22026;SDS011;11177;50.966;10.070;2023-10-31T12:54:32;2.85;;;1.35;;
22026;SDS011;11177;50.966;10.070;2023-10-31T12:57:02;1.85;;;1.30;;
22026;SDS011;11177;50.966;10.070;2023-10-31T12:59:37;4.75;;;2.05;;
22026;SDS011;11177;50.966;10.070;2023-10-31T13:02:05;6.75;;;2.47;;
22026;SDS011;11177;50.966;10.070;2023-10-31T13:04:33;3.80;;;1.90;;
22026;SDS011;11177;50.966;10.070;2023-10-31T13:07:04;3.15;;;1.60;;
22026;SDS011;11177;50.966;10.070;2023-10-31T13:09:35;2.50;;;1.70;;
22026;SDS011;11177;50.966;10.070;2023-10-31T13:12:06;2.58;;;1.70;;
22026;SDS011;11177;50.966;10.070;2023-10-31T13:14:34;2.45;;;1.65;;
22026;SDS011;11177;50.966;10.070;2023-10-31T13:17:02;3.53;;;1.38;;
22026;SDS011;11177;50.966;10.070;2023-10-31T13:19:30;3.22;;;1.88;;
22026;SDS011;11177;50.966;10.070;2023-10-31T13:21:57;4.32;;;2.25;;
22026;SDS011;11177;50.966;10.070;2023-10-31T13:24:24;3.28;;;2.78;;
22026;SDS011;11177;50.966;10.070;2023-10-31T13:26:51;5.22;;;3.95;;
22026;SDS011;11177;50.966;10.070;2023-10-31T13:29:19;4.65;;;3.20;;
22026;SDS011;11177;50.966;10.070;2023-10-31T13:31:47;3.40;;;2.15;;
22026;SDS011;11177;50.966;10.070;2023-10-31T13:34:14;2.50;;;1.80;;
22026;SDS011;11177;50.966;10.070;2023-10-31T13:36:44;2.15;;;1.33;;
22026;SDS011;11177;50.966;10.070;2023-10-31T13:39:11;6.75;;;3.55;;
22026;SDS011;11177;50.966;10.070;2023-10-31T13:41:39;7.28;;;4.22;;
22026;SDS011;11177;50.966;10.070;2023-10-31T13:44:06;5.35;;;2.53;;
22026;SDS011;11177;50.966;10.070;2023-10-31T13:46:36;5.13;;;2.22;;
22026;SDS011;11177;50.966;10.070;2023-10-31T13:49:03;10.55;;;6.50;;
22026;SDS011;11177;50.966;10.070;2023-10-31T13:51:30;4.03;;;2.55;;
22026;SDS011;11177;50.966;10.070;2023-10-31T13:53:57;7.63;;;4.78;;
22026;SDS011;11177;50.966;10.070;2023-10-31T13:56:24;4.75;;;2.78;;
22026;SDS011;11177;50.966;10.070;2023-10-31T13:58:51;2.30;;;1.70;;
22026;SDS011;11177;50.966;10.070;2023-10-31T14:01:18;3.00;;;2.45;;
22026;SDS011;11177;50.966;10.070;2023-10-31T14:03:51;5.80;;;3.40;;
22026;SDS011;11177;50.966;10.070;2023-10-31T14:06:20;3.50;;;1.70;;
22026;SDS011;11177;50.966;10.070;2023-10-31T14:08:47;3.28;;;1.20;;
22026;SDS011;11177;50.966;10.070;2023-10-31T14:11:14;4.03;;;1.58;;
22026;SDS011;11177;50.966;10.070;2023-10-31T14:13:42;3.15;;;1.80;;
22026;SDS011;11177;50.966;10.070;2023-10-31T14:16:11;5.00;;;1.50;;
22026;SDS011;11177;50.966;10.070;2023-10-31T14:18:39;2.65;;;1.20;;
22026;SDS011;11177;50.966;10.070;2023-10-31T14:21:08;3.42;;;1.10;;
22026;SDS011;11177;50.966;10.070;2023-10-31T14:23:35;2.58;;;1.58;;
22026;SDS011;11177;50.966;10.070;2023-10-31T14:26:02;3.92;;;1.40;;
22026;SDS011;11177;50.966;10.070;2023-10-31T14:28:30;3.80;;;1.10;;
22026;SDS011;11177;50.966;10.070;2023-10-31T14:30:57;5.38;;;1.35;;
22026;SDS011;11177;50.966;10.070;2023-10-31T14:33:24;5.30;;;1.45;;
22026;SDS011;11177;50.966;10.070;2023-10-31T14:35:52;3.72;;;1.30;;
22026;SDS011;11177;50.966;10.070;2023-10-31T14:38:19;3.08;;;1.15;;
22026;SDS011;11177;50.966;10.070;2023-10-31T14:40:46;4.75;;;1.48;;
22026;SDS011;11177;50.966;10.070;2023-10-31T14:43:16;4.80;;;1.48;;
22026;SDS011;11177;50.966;10.070;2023-10-31T14:45:47;5.07;;;1.73;;
22026;SDS011;11177;50.966;10.070;2023-10-31T14:48:15;5.38;;;1.70;;
22026;SDS011;11177;50.966;10.070;2023-10-31T14:50:42;3.08;;;1.50;;